Home   Weather   Germany   Tönisvorst   Past weeks
Flag for Germany

Past Weather in Tönisvorst, North Rhine-Westphalia, Germany — Yesterday and Last 2 Weeks

Currently: 64 °F. Clear. (Weather station: Monchengladbach Airport, Germany). See more current weather

Past Weather in Tönisvorst — Graph

°F

Tönisvorst Temperature Yesterday

Maximum temperature yesterday: 72 °F (at 3:50 pm)
Minimum temperature yesterday: 50 °F (at 4:50 am)
Average temperature yesterday: 62 °F

High & Low Weather Summary for the Past Weeks

 TemperatureHumidityPressure
High79 °F (Jul 25, 4:50 pm)100% (Jul 22, 4:20 am)30.21 "Hg (Jul 22, 4:20 am)
Low50 °F (Aug 3, 12:50 am)42% (Jul 23, 5:20 pm)29.68 "Hg (Jul 30, 5:50 pm)
Average65 °F76%29.90 "Hg
* Reported Jul 21 9:20 am — Aug 5 9:20 am, Tönisvorst. Weather by CustomWeather, © 2021

Note: Actual official high and low records may vary slightly from our data, if they occured in-between our weather recording intervals... More about our weather records

Tönisvorst Weather History for the Previous 24 Hours

Scroll right to see more
 ConditionsComfort  
Time TempWeatherWind HumidityBarometerVisibility
9:20 am
Thu, Aug 5
64 °FClear.2 mph78%29.83 "Hg6 mi
8:50 am63 °FClear.No wind83%29.83 "Hg6 mi
8:20 am63 °FClear.1 mph83%29.83 "Hg5 mi
7:50 am61 °FFog.2 mph94%29.83 "Hg3 mi
7:20 am59 °FPartly sunny.2 mph94%29.83 "Hg3 mi
6:50 am59 °FOvercast.1 mph94%29.83 "Hg3 mi
6:20 am57 °FOvercast.1 mph100%29.83 "Hg2 mi
5:50 am57 °FOvercast.1 mph100%29.83 "Hg3 mi
5:20 am57 °FBroken clouds.1 mph100%29.83 "Hg3 mi
4:50 am59 °FPartly sunny.No wind94%29.83 "Hg3 mi
4:20 am59 °FOvercast.1 mph94%29.83 "Hg4 mi
3:50 am59 °FOvercast.2 mph94%29.86 "Hg4 mi
3:20 am59 °FPartly sunny.1 mph94%29.86 "Hg5 mi
2:50 am59 °FPartly sunny.1 mph94%29.86 "Hg5 mi
1:50 am61 °FOvercast.2 mph88%29.86 "HgN/A
1:20 am63 °FOvercast.6 mph83%29.89 "HgN/A
12:50 am61 °FPartly sunny.5 mph88%29.89 "HgN/A
12:20 am61 °FPartly sunny.No wind88%29.89 "HgN/A
11:50 pm
Wed, Aug 4
61 °FBroken clouds.1 mph88%29.89 "HgN/A
11:20 pm63 °FBroken clouds.3 mph83%29.89 "HgN/A
10:50 pm63 °FPartly sunny.5 mph83%29.89 "HgN/A
10:20 pm64 °FPartly sunny.6 mph73%29.89 "HgN/A
9:50 pm63 °FOvercast.6 mph83%29.89 "HgN/A
9:20 pm64 °FBroken clouds.2 mph78%29.89 "Hg1 mi
8:50 pm64 °FPartly cloudy.3 mph78%29.86 "HgN/A
8:20 pm66 °FClear.2 mph68%29.86 "Hg10 mi
7:50 pm66 °FClear.No wind83%29.86 "Hg10 mi
7:20 pm68 °FClear.2 mph64%29.86 "Hg10 mi
6:50 pm70 °FPassing clouds.3 mph60%29.86 "HgN/A
6:20 pm70 °FClear.5 mph60%29.89 "Hg10 mi
5:50 pm72 °FPassing clouds.3 mph53%29.89 "HgN/A
5:20 pm70 °FPassing clouds.5 mph64%29.89 "HgN/A
4:50 pm70 °FPassing clouds.5 mph57%29.89 "HgN/A
4:20 pm72 °FPassing clouds.5 mph53%29.89 "HgN/A
3:50 pm72 °FClear.2 mph53%29.89 "Hg10 mi
3:20 pm70 °FClear.2 mph57%29.89 "Hg10 mi
2:50 pm70 °FClear.No wind57%29.89 "Hg10 mi
2:20 pm70 °FPassing clouds.3 mph60%29.92 "HgN/A
1:50 pm70 °FPassing clouds.6 mph60%29.92 "HgN/A
1:20 pm70 °FPassing clouds.6 mph60%29.92 "HgN/A
12:50 pm70 °FPassing clouds.6 mph57%29.92 "HgN/A
12:20 pm68 °FPassing clouds.3 mph60%29.92 "HgN/A
11:50 am68 °FPassing clouds.3 mph60%29.92 "HgN/A
11:20 am66 °FPassing clouds.2 mph68%29.92 "HgN/A
10:50 am66 °FPassing clouds.3 mph68%29.92 "HgN/A
10:20 am64 °FSunny.2 mph73%29.95 "Hg10 mi
Weather by CustomWeather, © 2021

See weather overview